createdAt,value
2017-11-15T00:00:49.279Z,9.03
2017-11-15T00:01:49.253Z,8.56
2017-11-15T00:02:49.242Z,8.75
2017-11-15T00:03:48.945Z,8.65
2017-11-15T00:04:49.199Z,9.03
2017-11-15T00:05:48.909Z,8.84
2017-11-15T00:06:49.162Z,8.94
2017-11-15T00:07:48.874Z,8.94
2017-11-15T00:08:48.858Z,8.94
2017-11-15T00:09:48.835Z,9.03
2017-11-15T00:10:48.818Z,8.84
2017-11-15T00:11:49.069Z,8.46
2017-11-15T00:12:49.049Z,8.75
2017-11-15T00:13:48.811Z,8.56
2017-11-15T00:14:49.014Z,7.98
2017-11-15T00:15:48.724Z,8.27
2017-11-15T00:16:48.706Z,8.65
2017-11-15T00:17:48.687Z,7.98
2017-11-15T00:18:48.669Z,8.27
2017-11-15T00:19:48.919Z,8.27
2017-11-15T00:20:48.899Z,8.08
2017-11-15T00:21:48.612Z,8.46
2017-11-15T00:22:48.863Z,8.46
2017-11-15T00:23:48.896Z,8.46
2017-11-15T00:24:48.556Z,8.27
2017-11-15T00:25:48.809Z,8.46
2017-11-15T00:26:48.806Z,8.08
2017-11-15T00:27:48.502Z,8.27
2017-11-15T00:28:48.753Z,8.17
2017-11-15T00:29:48.739Z,8.08
2017-11-15T00:30:48.716Z,8.17
2017-11-15T00:31:48.698Z,7.98
2017-11-15T00:32:48.675Z,8.17
2017-11-15T00:33:48.395Z,7.89
2017-11-15T00:34:48.641Z,8.08
2017-11-15T00:35:48.364Z,8.36
2017-11-15T00:36:48.604Z,8.27
2017-11-15T00:37:48.586Z,8.36
2017-11-15T00:38:48.351Z,8.08
2017-11-15T00:39:48.281Z,7.98
2017-11-15T00:40:48.532Z,7.98
2017-11-15T00:41:48.520Z,8.08
2017-11-15T00:42:48.229Z,7.98
2017-11-15T00:43:48.478Z,8.17
2017-11-15T00:44:48.187Z,8.08
2017-11-15T00:45:48.172Z,8.17
2017-11-15T00:46:48.152Z,8.36
2017-11-15T00:47:48.401Z,8.27
2017-11-15T00:48:48.386Z,8.36
2017-11-15T00:49:48.103Z,8.17
2017-11-15T00:50:48.348Z,8.08
2017-11-15T00:51:48.327Z,8.17
2017-11-15T00:52:48.043Z,8.27
2017-11-15T00:53:48.024Z,8.56
2017-11-15T00:54:48.278Z,8.46
2017-11-15T00:55:47.986Z,8.36
2017-11-15T00:56:48.237Z,8.27
2017-11-15T00:57:48.219Z,8.65
2017-11-15T00:58:47.931Z,8.56
2017-11-15T00:59:48.181Z,9.03
2017-11-15T01:00:47.900Z,8.84
2017-11-15T01:01:48.153Z,8.65
2017-11-15T01:02:48.128Z,9.22
2017-11-15T01:03:47.841Z,8.75
2017-11-15T01:04:48.102Z,8.94
2017-11-15T01:05:47.803Z,8.94
2017-11-15T01:06:48.055Z,8.84
2017-11-15T01:07:48.035Z,8.94
2017-11-15T01:08:48.036Z,9.12
2017-11-15T01:09:47.996Z,9.12
2017-11-15T01:10:47.716Z,9.22
2017-11-15T01:11:47.959Z,9.12
2017-11-15T01:12:47.672Z,9.03
2017-11-15T01:13:47.923Z,9.5
2017-11-15T01:14:47.636Z,9.5
2017-11-15T01:15:47.620Z,9.6
2017-11-15T01:16:47.600Z,9.89
2017-11-15T01:17:47.580Z,9.79
2017-11-15T01:18:47.836Z,9.79
2017-11-15T01:19:47.544Z,9.5
2017-11-15T01:20:47.796Z,9.69
2017-11-15T01:21:47.786Z,9.5
2017-11-15T01:22:47.759Z,9.79
2017-11-15T01:23:47.741Z,9.5
2017-11-15T01:24:47.452Z,9.6
2017-11-15T01:25:47.703Z,9.69
2017-11-15T01:26:47.417Z,9.41
2017-11-15T01:27:47.665Z,9.41
2017-11-15T01:28:47.651Z,9.5
2017-11-15T01:29:47.629Z,9.6
2017-11-15T01:30:47.343Z,9.6
2017-11-15T01:31:47.598Z,9.6
2017-11-15T01:32:47.572Z,9.6
2017-11-15T01:33:47.293Z,9.69
2017-11-15T01:34:47.317Z,9.6
2017-11-15T01:35:47.524Z,9.5
2017-11-15T01:36:47.235Z,9.41
2017-11-15T01:37:47.488Z,9.41
2017-11-15T01:38:47.464Z,9.6
2017-11-15T01:39:47.186Z,9.6
2017-11-15T01:40:47.436Z,9.41
2017-11-15T01:41:47.139Z,9.89
2017-11-15T01:42:47.393Z,9.6
2017-11-15T01:43:47.104Z,9.98
2017-11-15T01:44:47.083Z,9.89
2017-11-15T01:45:47.065Z,10.17
2017-11-15T01:46:47.318Z,10.08
2017-11-15T01:47:47.030Z,9.69
2017-11-15T01:48:47.285Z,9.79
2017-11-15T01:49:46.992Z,9.5
2017-11-15T01:50:47.241Z,9.79
2017-11-15T01:51:47.226Z,9.69
2017-11-15T01:52:46.938Z,9.22
2017-11-15T01:53:46.921Z,9.41
2017-11-15T01:54:46.901Z,9.6
2017-11-15T01:55:47.356Z,9.5
2017-11-15T01:56:47.137Z,9.5
2017-11-15T01:57:47.122Z,9.89
2017-11-15T01:58:47.097Z,9.41
2017-11-15T01:59:46.809Z,9.6
2017-11-15T02:00:47.064Z,9.5
2017-11-15T02:01:47.038Z,9.31
2017-11-15T02:02:46.753Z,9.03
2017-11-15T02:03:47.004Z,9.22
2017-11-15T02:04:47.004Z,9.41
2017-11-15T02:05:46.970Z,9.31
2017-11-15T02:06:46.956Z,9.22
2017-11-15T02:07:46.930Z,9.31
2017-11-15T02:08:46.916Z,9.41
2017-11-15T02:09:46.623Z,9.41
2017-11-15T02:10:46.603Z,8.94
2017-11-15T02:11:46.862Z,9.03
2017-11-15T02:12:46.846Z,9.03
2017-11-15T02:13:46.818Z,9.12
2017-11-15T02:14:46.531Z,8.94
2017-11-15T02:15:46.788Z,9.22
2017-11-15T02:16:46.767Z,9.03
2017-11-15T02:17:46.475Z,9.03
2017-11-15T02:18:46.459Z,8.94
2017-11-15T02:19:46.440Z,9.22
2017-11-15T02:20:46.424Z,9.12
2017-11-15T02:21:46.403Z,9.12
2017-11-15T02:22:46.656Z,9.41
2017-11-15T02:23:46.367Z,9.31
2017-11-15T02:24:46.346Z,9.5
2017-11-15T02:25:46.332Z,9.03
2017-11-15T02:26:46.311Z,9.22
2017-11-15T02:27:46.563Z,9.31
2017-11-15T02:28:46.276Z,9.12
2017-11-15T02:29:46.256Z,9.22
2017-11-15T02:30:46.239Z,9.03
2017-11-15T02:31:46.488Z,8.75
2017-11-15T02:32:46.479Z,8.56
2017-11-15T02:33:46.453Z,8.56
2017-11-15T02:34:46.434Z,8.17
2017-11-15T02:35:46.143Z,8.36
2017-11-15T02:36:46.128Z,8.17
2017-11-15T02:37:46.108Z,8.08
2017-11-15T02:38:46.102Z,7.6
2017-11-15T02:39:46.351Z,7.51
2017-11-15T02:40:46.055Z,7.79
2017-11-15T02:41:46.305Z,7.79
2017-11-15T02:42:46.297Z,7.51
2017-11-15T02:43:46.000Z,7.51
2017-11-15T02:44:46.248Z,7.6
2017-11-15T02:45:46.234Z,7.42
2017-11-15T02:46:46.229Z,7.13
2017-11-15T02:47:46.203Z,7.13
2017-11-15T02:48:45.906Z,7.13
2017-11-15T02:49:45.891Z,6.84
2017-11-15T02:50:45.870Z,6.84
2017-11-15T02:51:45.848Z,7.13
2017-11-15T02:52:45.833Z,6.75
2017-11-15T02:53:46.091Z,6.75
2017-11-15T02:54:46.076Z,6.75
2017-11-15T02:55:45.784Z,6.75
2017-11-15T02:56:46.040Z,6.75
2017-11-15T02:57:45.738Z,6.56
2017-11-15T02:58:45.991Z,6.37
2017-11-15T02:59:45.973Z,6.75
2017-11-15T03:00:45.697Z,6.65
2017-11-15T03:01:45.947Z,6.65
2017-11-15T03:02:45.918Z,6.37
2017-11-15T03:03:45.901Z,6.27
2017-11-15T03:04:45.877Z,6.27
2017-11-15T03:05:45.599Z,6.37
2017-11-15T03:06:45.842Z,6.18
2017-11-15T03:07:45.826Z,6.18
2017-11-15T03:08:45.808Z,6.18
2017-11-15T03:09:45.787Z,6.37
2017-11-15T03:10:45.768Z,6.27
2017-11-15T03:11:45.487Z,6.18
2017-11-15T03:12:45.461Z,6.18
2017-11-15T03:13:45.722Z,6.18
2017-11-15T03:14:45.426Z,6.18
2017-11-15T03:15:45.409Z,6.18
2017-11-15T03:16:45.387Z,6.18
2017-11-15T03:17:45.643Z,6.37
2017-11-15T03:18:45.622Z,6.27
2017-11-15T03:19:45.330Z,6.09
2017-11-15T03:20:45.316Z,6.18
2017-11-15T03:21:45.298Z,6.46
2017-11-15T03:22:45.280Z,6.56
2017-11-15T03:23:45.258Z,6.37
2017-11-15T03:24:45.512Z,6.37
2017-11-15T03:25:45.506Z,6.56
2017-11-15T03:26:45.256Z,6.65
2017-11-15T03:27:45.455Z,6.56
2017-11-15T03:28:45.435Z,6.37
2017-11-15T03:29:45.149Z,6.46
2017-11-15T03:30:45.135Z,6.84
2017-11-15T03:31:45.114Z,6.56
2017-11-15T03:32:45.385Z,6.37
2017-11-15T03:33:45.347Z,6.56
2017-11-15T03:34:45.054Z,6.84
2017-11-15T03:35:45.311Z,6.75
2017-11-15T03:36:45.287Z,6.56
2017-11-15T03:37:45.002Z,6.84
2017-11-15T03:38:45.252Z,6.56
2017-11-15T03:39:45.233Z,6.37
2017-11-15T03:40:44.957Z,6.84
2017-11-15T03:41:44.926Z,6.75
2017-11-15T03:42:45.180Z,6.46
2017-11-15T03:43:44.887Z,6.65
2017-11-15T03:44:44.868Z,6.84
2017-11-15T03:45:44.852Z,6.37
2017-11-15T03:46:45.110Z,6.84
2017-11-15T03:47:44.818Z,6.84
2017-11-15T03:48:45.066Z,6.75
2017-11-15T03:49:44.791Z,6.75
2017-11-15T03:50:44.767Z,6.84
2017-11-15T03:51:45.012Z,6.65
2017-11-15T03:52:44.992Z,6.56
2017-11-15T03:53:44.704Z,6.84
2017-11-15T03:54:44.957Z,6.75
2017-11-15T03:55:44.670Z,6.56
2017-11-15T03:56:44.651Z,6.37
2017-11-15T03:57:44.916Z,6.37
2017-11-15T03:58:44.881Z,6.37
2017-11-15T03:59:44.863Z,6.46
2017-11-15T04:00:44.576Z,6.84
2017-11-15T04:01:44.825Z,6.75
2017-11-15T04:02:44.537Z,6.75
2017-11-15T04:03:44.791Z,6.75
2017-11-15T04:04:44.501Z,6.94
2017-11-15T04:05:44.750Z,6.94
2017-11-15T04:06:44.744Z,6.94
2017-11-15T04:07:44.445Z,6.84
2017-11-15T04:08:44.702Z,6.94
2017-11-15T04:09:44.412Z,7.03
2017-11-15T04:10:44.395Z,6.94
2017-11-15T04:11:44.372Z,6.94
2017-11-15T04:12:44.353Z,7.03
2017-11-15T04:13:44.637Z,6.65
2017-11-15T04:14:44.585Z,6.84
2017-11-15T04:15:44.574Z,6.94
2017-11-15T04:16:44.552Z,6.84
2017-11-15T04:17:44.537Z,6.75
2017-11-15T04:18:44.248Z,6.46
2017-11-15T04:19:44.227Z,6.94
2017-11-15T04:20:44.212Z,6.46
2017-11-15T04:21:44.190Z,6.65
2017-11-15T04:22:44.440Z,6.56
2017-11-15T04:23:44.152Z,6.56
2017-11-15T04:24:44.401Z,6.65
2017-11-15T04:25:44.118Z,6.75
2017-11-15T04:26:44.097Z,6.46
2017-11-15T04:27:44.085Z,6.27
2017-11-15T04:28:44.066Z,6.18
2017-11-15T04:29:44.052Z,6.18
2017-11-15T04:30:44.024Z,6.37
2017-11-15T04:31:44.275Z,6.37
2017-11-15T04:32:43.991Z,5.89
2017-11-15T04:33:44.240Z,5.61
2017-11-15T04:34:43.949Z,5.22
2017-11-15T04:35:44.201Z,5.41
2017-11-15T04:36:44.187Z,4.08
2017-11-15T04:37:43.896Z,3.14
2017-11-15T04:38:44.159Z,2.56
2017-11-15T04:39:44.128Z,2.28
2017-11-15T04:40:44.112Z,1.8
2017-11-15T04:41:43.819Z,1.71
2017-11-15T04:42:44.073Z,1.52
2017-11-15T04:43:43.791Z,1.61
2017-11-15T04:44:44.034Z,0.95
2017-11-15T04:45:43.747Z,0.76
2017-11-15T04:46:43.734Z,0.38
2017-11-15T04:47:43.764Z,0
2017-11-15T04:48:43.690Z,0
2017-11-15T04:49:43.673Z,0
2017-11-15T04:50:43.921Z,0
2017-11-15T04:51:43.908Z,0
2017-11-15T04:52:43.613Z,0
2017-11-15T04:53:43.602Z,0
2017-11-15T04:54:43.862Z,0
2017-11-15T04:55:43.850Z,0
2017-11-15T04:56:43.809Z,0
2017-11-15T04:57:43.545Z,0
2017-11-15T04:58:43.510Z,0
2017-11-15T04:59:43.775Z,0
2017-11-15T05:00:43.734Z,0
2017-11-15T05:01:43.449Z,0
2017-11-15T05:02:43.433Z,0
2017-11-15T05:03:43.409Z,0
2017-11-15T05:04:43.393Z,0
2017-11-15T05:05:43.374Z,0
2017-11-15T05:06:43.627Z,0
2017-11-15T05:07:43.339Z,0
2017-11-15T05:08:43.596Z,0
2017-11-15T05:09:43.308Z,0
2017-11-15T05:10:43.281Z,0
2017-11-15T05:11:43.533Z,0
2017-11-15T05:12:43.518Z,0
2017-11-15T05:13:43.493Z,0
2017-11-15T05:14:43.409Z,0
2017-11-15T05:15:43.460Z,0
2017-11-15T05:16:43.442Z,0
2017-11-15T05:17:43.425Z,0
2017-11-15T05:18:43.405Z,0
2017-11-15T05:19:43.383Z,0
2017-11-15T05:20:43.361Z,0
2017-11-15T05:21:43.345Z,0
2017-11-15T05:22:43.327Z,0
2017-11-15T05:23:43.316Z,0
2017-11-15T05:24:43.020Z,0
2017-11-15T05:25:43.283Z,0
2017-11-15T05:26:42.985Z,0
2017-11-15T05:27:42.967Z,0
2017-11-15T05:28:42.955Z,0
2017-11-15T05:29:43.202Z,0
2017-11-15T05:30:42.914Z,0
2017-11-15T05:31:43.159Z,0
2017-11-15T05:32:42.871Z,0
2017-11-15T05:33:43.118Z,0
2017-11-15T05:34:42.838Z,0
2017-11-15T05:35:42.813Z,0
2017-11-15T05:36:42.798Z,0
2017-11-15T05:37:42.778Z,0
2017-11-15T05:38:43.031Z,0
2017-11-15T05:39:43.009Z,0
2017-11-15T05:40:43.001Z,0
2017-11-15T05:41:42.702Z,0
2017-11-15T05:42:42.687Z,0
2017-11-15T05:43:42.984Z,0
2017-11-15T05:44:42.650Z,0
2017-11-15T05:45:42.626Z,0
2017-11-15T05:46:42.885Z,0
2017-11-15T05:47:42.593Z,0
2017-11-15T05:48:42.839Z,0
2017-11-15T05:49:42.828Z,0
2017-11-15T05:50:42.811Z,0
2017-11-15T05:51:42.526Z,0
2017-11-15T05:52:42.768Z,0
2017-11-15T05:53:42.745Z,0
2017-11-15T05:54:42.458Z,0
2017-11-15T05:55:42.451Z,0
2017-11-15T05:56:42.624Z,0
2017-11-15T05:57:42.676Z,0
2017-11-15T05:58:42.668Z,0
2017-11-15T05:59:42.636Z,0
2017-11-15T06:00:42.615Z,0
2017-11-15T06:01:42.596Z,0
2017-11-15T06:02:42.312Z,0
2017-11-15T06:03:42.292Z,0
2017-11-15T06:04:42.545Z,0
2017-11-15T06:05:42.525Z,0
2017-11-15T06:06:42.505Z,0
2017-11-15T06:07:42.216Z,0
2017-11-15T06:08:42.473Z,0
2017-11-15T06:09:42.186Z,0
2017-11-15T06:10:42.210Z,0
2017-11-15T06:11:42.307Z,0
2017-11-15T06:12:42.123Z,0
2017-11-15T06:13:42.437Z,0
2017-11-15T06:14:42.400Z,0
2017-11-15T06:15:42.099Z,0
2017-11-15T06:16:42.498Z,0
2017-11-15T06:17:42.444Z,0
2017-11-15T06:18:42.367Z,0
2017-11-15T06:19:42.281Z,0
2017-11-15T06:20:42.369Z,0
2017-11-15T06:21:42.036Z,0
2017-11-15T06:22:42.029Z,0
2017-11-15T06:23:42.311Z,0
2017-11-15T06:24:42.028Z,0
2017-11-15T06:25:41.883Z,0
2017-11-15T06:26:41.876Z,0
2017-11-15T06:27:41.858Z,0
2017-11-15T06:28:42.305Z,0
2017-11-15T06:29:42.321Z,0
2017-11-15T06:30:41.879Z,0
2017-11-15T06:31:41.855Z,0
2017-11-15T06:32:41.869Z,0
2017-11-15T06:33:42.118Z,0
2017-11-15T06:34:42.205Z,0
2017-11-15T06:35:41.835Z,0
2017-11-15T06:36:41.770Z,0
2017-11-15T06:37:41.784Z,0
2017-11-15T06:38:41.638Z,0
2017-11-15T06:39:41.954Z,0
2017-11-15T06:40:41.873Z,0
2017-11-15T06:41:41.868Z,0
2017-11-15T06:42:41.839Z,0
2017-11-15T06:43:41.550Z,0
2017-11-15T06:44:41.577Z,0
2017-11-15T06:45:41.788Z,0
2017-11-15T06:46:41.493Z,0.47
2017-11-15T06:47:41.741Z,0.57
2017-11-15T06:48:41.452Z,0.57
2017-11-15T06:49:41.705Z,0.57
2017-11-15T06:50:41.427Z,0.85
2017-11-15T06:51:41.397Z,0.67
2017-11-15T06:52:41.383Z,0.95
2017-11-15T06:53:41.362Z,1.04
2017-11-15T06:54:41.619Z,1.23
2017-11-15T06:55:41.325Z,1.42
2017-11-15T06:56:41.580Z,1.33
2017-11-15T06:57:41.562Z,1.52
2017-11-15T06:58:41.270Z,1.61
2017-11-15T06:59:41.302Z,1.42
2017-11-15T07:00:41.234Z,1.52
2017-11-15T07:01:41.488Z,1.42
2017-11-15T07:02:41.464Z,1.33
2017-11-15T07:03:41.450Z,1.33
2017-11-15T07:04:41.161Z,1.61
2017-11-15T07:05:41.143Z,1.71
2017-11-15T07:06:41.124Z,1.9
2017-11-15T07:07:41.113Z,2
2017-11-15T07:08:41.355Z,1.9
2017-11-15T07:09:41.337Z,2.28
2017-11-15T07:10:41.320Z,2.19
2017-11-15T07:11:41.303Z,2.37
2017-11-15T07:12:41.019Z,2.56
2017-11-15T07:13:40.995Z,2.47
2017-11-15T07:14:41.252Z,2.66
2017-11-15T07:15:41.243Z,3.33
2017-11-15T07:16:41.210Z,3.42
2017-11-15T07:17:41.195Z,3.23
2017-11-15T07:18:41.173Z,3.52
2017-11-15T07:19:40.889Z,3.52
2017-11-15T07:20:40.866Z,3.8
2017-11-15T07:21:40.849Z,3.42
2017-11-15T07:22:41.102Z,3.7
2017-11-15T07:23:40.812Z,4.08
2017-11-15T07:24:40.794Z,3.89
2017-11-15T07:25:40.778Z,3.99
2017-11-15T07:26:40.757Z,4.18
2017-11-15T07:27:40.743Z,4.09
2017-11-15T07:28:40.992Z,4.37
2017-11-15T07:29:40.972Z,4.85
2017-11-15T07:30:40.953Z,5.32
2017-11-15T07:31:40.663Z,5.23
2017-11-15T07:32:40.919Z,5.23
2017-11-15T07:33:40.902Z,5.32
2017-11-15T07:34:40.614Z,5.42
2017-11-15T07:35:40.876Z,5.42
2017-11-15T07:36:40.575Z,5.8
2017-11-15T07:37:40.836Z,5.8
2017-11-15T07:38:40.808Z,5.71
2017-11-15T07:39:40.794Z,5.8
2017-11-15T07:40:40.502Z,5.99
2017-11-15T07:41:40.754Z,6.37
2017-11-15T07:42:40.743Z,6.75
2017-11-15T07:43:40.448Z,6.85
2017-11-15T07:44:40.431Z,6.75
2017-11-15T07:45:40.413Z,7.13
2017-11-15T07:46:40.664Z,7.7
2017-11-15T07:47:40.384Z,7.13
2017-11-15T07:48:40.625Z,7.13
2017-11-15T07:49:40.339Z,6.94
2017-11-15T07:50:40.369Z,7.13
2017-11-15T07:51:40.575Z,7.13
2017-11-15T07:52:40.558Z,6.94
2017-11-15T07:53:40.539Z,7.32
2017-11-15T07:54:40.534Z,7.7
2017-11-15T07:55:40.505Z,7.8
2017-11-15T07:56:40.686Z,7.89
2017-11-15T07:57:40.198Z,9.42
2017-11-15T07:58:40.451Z,8.94
2017-11-15T07:59:40.435Z,9.22
2017-11-15T08:00:40.409Z,9.42
2017-11-15T08:01:40.122Z,9.8
2017-11-15T08:02:40.108Z,11.41
2017-11-15T08:03:40.364Z,11.7
2017-11-15T08:04:40.073Z,11.13
2017-11-15T08:05:40.376Z,11.32
2017-11-15T08:06:40.316Z,11.03
2017-11-15T08:07:40.286Z,13.03
2017-11-15T08:08:40.276Z,13.79
2017-11-15T08:09:40.256Z,13.79
2017-11-15T08:10:40.240Z,13.89
2017-11-15T08:11:40.214Z,14.07
2017-11-15T08:12:40.198Z,14.55
2017-11-15T08:13:39.911Z,15.03
2017-11-15T08:14:40.163Z,14.74
2017-11-15T08:15:39.883Z,14.84
2017-11-15T08:16:40.135Z,15.5
2017-11-15T08:17:39.842Z,14.84
2017-11-15T08:18:40.097Z,14.55
2017-11-15T08:19:40.108Z,16.27
2017-11-15T08:20:40.054Z,16.55
2017-11-15T08:21:40.038Z,17.41
2017-11-15T08:22:40.025Z,16.83
2017-11-15T08:23:39.736Z,17.12
2017-11-15T08:24:39.714Z,17.22
2017-11-15T08:25:39.977Z,18.07
2017-11-15T08:26:39.949Z,17.79
2017-11-15T08:27:39.665Z,18.36
2017-11-15T08:28:39.918Z,18.36
2017-11-15T08:29:39.906Z,17.79
2017-11-15T08:30:39.882Z,18.45
2017-11-15T08:31:39.593Z,17.88
2017-11-15T08:32:39.574Z,17.8
2017-11-15T08:33:39.829Z,18.55
2017-11-15T08:34:39.814Z,19.03
2017-11-15T08:35:39.789Z,18.65
2017-11-15T08:36:39.775Z,18.94
2017-11-15T08:37:39.489Z,18.55
2017-11-15T08:38:39.746Z,19.51
2017-11-15T08:39:39.739Z,19.03
2017-11-15T08:40:39.437Z,19.03
2017-11-15T08:41:39.686Z,19.98
2017-11-15T08:42:39.670Z,19.32
2017-11-15T08:43:39.658Z,19.22
2017-11-15T08:44:39.368Z,19.03
2017-11-15T08:45:39.621Z,18.65
2017-11-15T08:46:39.602Z,18.84
2017-11-15T08:47:39.600Z,19.22
2017-11-15T08:48:39.564Z,19.03
2017-11-15T08:49:39.278Z,20.56
2017-11-15T08:50:39.544Z,20.46
2017-11-15T08:51:39.243Z,20.94
2017-11-15T08:52:39.225Z,20.46
2017-11-15T08:53:39.486Z,20.65
2017-11-15T08:54:39.190Z,22.55
2017-11-15T08:55:39.174Z,22.17
2017-11-15T08:56:39.426Z,22.36
2017-11-15T08:57:39.137Z,22.36
2017-11-15T08:58:39.123Z,24.17
2017-11-15T08:59:39.380Z,22.84
2017-11-15T09:00:39.358Z,23.22
2017-11-15T09:01:39.393Z,23.5
2017-11-15T09:02:39.325Z,23.6
2017-11-15T09:03:39.305Z,24.27
2017-11-15T09:04:39.291Z,23.79
2017-11-15T09:05:39.000Z,24.17
2017-11-15T09:06:39.253Z,24.37
2017-11-15T09:07:39.237Z,26.26
2017-11-15T09:08:39.222Z,25.79
2017-11-15T09:09:38.933Z,25.7
2017-11-15T09:10:39.185Z,25.89
2017-11-15T09:11:39.167Z,26.93
2017-11-15T09:12:39.154Z,26.26
2017-11-15T09:13:38.865Z,26.07
2017-11-15T09:14:38.849Z,25.98
2017-11-15T09:15:39.106Z,26.07
2017-11-15T09:16:39.088Z,28.93
2017-11-15T09:17:38.798Z,30.36
2017-11-15T09:18:39.071Z,31.61
2017-11-15T09:19:38.763Z,31.79
2017-11-15T09:20:38.745Z,32.07
2017-11-15T09:21:38.729Z,30.65
2017-11-15T09:22:38.980Z,29.79
2017-11-15T09:23:38.697Z,30.76
2017-11-15T09:24:38.956Z,31.71
2017-11-15T09:25:38.942Z,32.37
2017-11-15T09:26:38.696Z,32.28
2017-11-15T09:27:38.632Z,33.51
2017-11-15T09:28:38.614Z,33.51
2017-11-15T09:29:38.594Z,32.37
2017-11-15T09:30:38.580Z,33.04
2017-11-15T09:31:38.831Z,32.66
2017-11-15T09:32:38.818Z,32.56
2017-11-15T09:33:38.797Z,32.95
2017-11-15T09:34:38.780Z,33.42
2017-11-15T09:35:38.493Z,33.8
2017-11-15T09:36:38.498Z,35.89
2017-11-15T09:37:38.739Z,35.71
2017-11-15T09:38:38.723Z,35.33
2017-11-15T09:39:38.427Z,37.71
2017-11-15T09:40:38.689Z,38.75
2017-11-15T09:41:38.444Z,38.18
2017-11-15T09:42:38.652Z,36.28
2017-11-15T09:43:38.633Z,35.61
2017-11-15T09:44:38.617Z,36.66
2017-11-15T09:45:38.604Z,36.18
2017-11-15T09:46:38.633Z,37.71
2017-11-15T09:47:38.565Z,37.99
2017-11-15T09:48:38.278Z,38.56
2017-11-15T09:49:38.261Z,37.42
2017-11-15T09:50:38.513Z,36.37
2017-11-15T09:51:38.495Z,40.18
2017-11-15T09:52:38.210Z,38.66
2017-11-15T09:53:38.198Z,40.94
2017-11-15T09:54:38.446Z,40.47
2017-11-15T09:55:38.438Z,38.85
2017-11-15T09:56:38.617Z,40.56
2017-11-15T09:57:38.404Z,41.52
2017-11-15T09:58:38.383Z,40.94
2017-11-15T09:59:38.375Z,40.47
2017-11-15T10:00:38.362Z,40.56
2017-11-15T10:01:38.383Z,41.23
2017-11-15T10:02:38.316Z,41.13
2017-11-15T10:03:38.358Z,41.23
2017-11-15T10:04:38.020Z,42.28
2017-11-15T10:05:38.000Z,41.42
2017-11-15T10:06:38.256Z,41.06
2017-11-15T10:07:37.968Z,43.91
2017-11-15T10:08:37.950Z,43.73
2017-11-15T10:09:37.934Z,43.44
2017-11-15T10:10:37.919Z,45.15
2017-11-15T10:11:38.175Z,44.78
2017-11-15T10:12:38.159Z,44.01
2017-11-15T10:13:37.870Z,43.82
2017-11-15T10:14:38.134Z,44.01
2017-11-15T10:15:37.837Z,46.49
2017-11-15T10:16:38.091Z,45.92
2017-11-15T10:17:38.076Z,46.11
2017-11-15T10:18:37.789Z,50.4
2017-11-15T10:19:37.775Z,49.92
2017-11-15T10:20:38.026Z,51.25
2017-11-15T10:21:38.009Z,50.49
2017-11-15T10:22:37.725Z,50.49
2017-11-15T10:23:37.979Z,50.68
2017-11-15T10:24:37.691Z,52.11
2017-11-15T10:25:37.947Z,49.63
2017-11-15T10:26:37.945Z,54.3
2017-11-15T10:27:37.643Z,56.49
2017-11-15T10:28:37.630Z,56.11
2017-11-15T10:29:37.883Z,56.78
2017-11-15T10:30:37.874Z,54.88
2017-11-15T10:31:37.581Z,58.52
2017-11-15T10:32:37.564Z,55.07
2017-11-15T10:33:37.836Z,55.16
2017-11-15T10:34:37.532Z,55.26
2017-11-15T10:35:37.793Z,55.26
2017-11-15T10:36:37.507Z,55.54
2017-11-15T10:37:37.755Z,56.49
2017-11-15T10:38:37.471Z,54.78
2017-11-15T10:39:37.728Z,54.78
2017-11-15T10:40:37.709Z,55.16
2017-11-15T10:41:37.697Z,55.26
2017-11-15T10:42:37.409Z,57.73
2017-11-15T10:43:37.663Z,56.4
2017-11-15T10:44:37.646Z,54.49
2017-11-15T10:45:37.369Z,53.16
2017-11-15T10:46:37.616Z,52.78
2017-11-15T10:47:37.602Z,53.06
2017-11-15T10:48:37.583Z,53.83
2017-11-15T10:49:37.298Z,53.95
2017-11-15T10:50:37.553Z,56.62
2017-11-15T10:51:37.541Z,55.19
2017-11-15T10:52:37.525Z,56.14
2017-11-15T10:53:37.510Z,57.57
2017-11-15T10:54:37.225Z,56.52
2017-11-15T10:55:37.208Z,55.92
2017-11-15T10:56:37.459Z,54.49
2017-11-15T10:57:37.497Z,56.62
2017-11-15T10:58:37.438Z,55.16
2017-11-15T10:59:37.414Z,54.02
2017-11-15T11:00:37.395Z,53.64
2017-11-15T11:01:37.386Z,54.78
2017-11-15T11:02:37.376Z,52.87
2017-11-15T11:03:37.080Z,52.23
2017-11-15T11:04:37.341Z,52.14
2017-11-15T11:05:37.317Z,56.62
2017-11-15T11:06:37.302Z,56.52
2017-11-15T11:07:37.018Z,55.85
2017-11-15T11:08:37.004Z,54.59
2017-11-15T11:09:37.260Z,55.47
2017-11-15T11:10:37.241Z,56.52
2017-11-15T11:11:36.953Z,57.38
2017-11-15T11:12:37.207Z,55.85
2017-11-15T11:13:36.923Z,54.49
2017-11-15T11:14:37.178Z,54.52
2017-11-15T11:15:37.169Z,53.95
2017-11-15T11:16:37.152Z,55.19
2017-11-15T11:17:37.129Z,55.38
2017-11-15T11:18:36.843Z,55.95
2017-11-15T11:19:37.099Z,56.04
2017-11-15T11:20:36.812Z,55.35
2017-11-15T11:21:37.064Z,54.24
2017-11-15T11:22:36.781Z,53.54
2017-11-15T11:23:37.065Z,53.28
2017-11-15T11:24:37.026Z,54.68
2017-11-15T11:25:37.006Z,56.02
2017-11-15T11:26:37.029Z,54.9
2017-11-15T11:27:36.701Z,53.73
2017-11-15T11:28:36.685Z,54.9
2017-11-15T11:29:36.937Z,53.56
2017-11-15T11:30:36.658Z,52.71
2017-11-15T11:31:36.640Z,55.19
2017-11-15T11:32:36.900Z,54.88
2017-11-15T11:33:36.875Z,55.28
2017-11-15T11:34:36.601Z,54.71
2017-11-15T11:35:36.844Z,53.83
2017-11-15T11:36:36.834Z,53.83
2017-11-15T11:37:36.548Z,54.49
2017-11-15T11:38:36.801Z,53.73
2017-11-15T11:39:36.783Z,54.78
2017-11-15T11:40:36.497Z,53.54
2017-11-15T11:41:36.487Z,51.73
2017-11-15T11:42:36.732Z,51.54
2017-11-15T11:43:36.720Z,53.25
2017-11-15T11:44:36.699Z,52.97
2017-11-15T11:45:36.697Z,51.82
2017-11-15T11:46:36.399Z,51.35
2017-11-15T11:47:36.382Z,50.97
2017-11-15T11:48:36.368Z,50.97
2017-11-15T11:49:36.359Z,52.4
2017-11-15T11:50:36.610Z,51.73
2017-11-15T11:51:36.587Z,51.06
2017-11-15T11:52:36.580Z,52.2
2017-11-15T11:53:36.561Z,52.78
2017-11-15T11:54:36.540Z,52.49
2017-11-15T11:55:36.529Z,53.54
2017-11-15T11:56:36.718Z,51.92
2017-11-15T11:57:36.223Z,51.25
2017-11-15T11:58:36.207Z,50.78
2017-11-15T11:59:36.193Z,50.97
2017-11-15T12:00:36.485Z,50.59
2017-11-15T12:01:36.432Z,50.59
2017-11-15T12:02:36.413Z,50.49
2017-11-15T12:03:36.399Z,50.49
2017-11-15T12:04:36.114Z,49.26
2017-11-15T12:05:36.096Z,48.97
2017-11-15T12:06:36.079Z,48.02
2017-11-15T12:07:36.063Z,47.25
2017-11-15T12:08:36.325Z,46.68
2017-11-15T12:09:36.307Z,46.01
2017-11-15T12:10:36.012Z,46.01
2017-11-15T12:11:36.277Z,46.39
2017-11-15T12:12:36.264Z,45.44
2017-11-15T12:13:35.967Z,45.44
2017-11-15T12:14:36.218Z,45.35
2017-11-15T12:15:36.203Z,45.25
2017-11-15T12:16:36.187Z,45.35
2017-11-15T12:17:36.171Z,47.54
2017-11-15T12:18:35.937Z,47.54
2017-11-15T12:19:36.144Z,47.34
2017-11-15T12:20:36.119Z,46.39
2017-11-15T12:21:35.838Z,46.58
2017-11-15T12:22:36.088Z,46.68
2017-11-15T12:23:36.072Z,46.49
2017-11-15T12:24:36.060Z,45.83
2017-11-15T12:25:35.777Z,45.83
2017-11-15T12:26:35.757Z,45.54
2017-11-15T12:27:36.014Z,45.63
2017-11-15T12:28:35.994Z,45.73
2017-11-15T12:29:35.977Z,45.15
2017-11-15T12:30:35.960Z,44.49
2017-11-15T12:31:35.670Z,43.82
2017-11-15T12:32:35.928Z,43.82
2017-11-15T12:33:35.911Z,43.63
2017-11-15T12:34:35.624Z,42.58
2017-11-15T12:35:35.894Z,40.77
2017-11-15T12:36:35.600Z,40.87
2017-11-15T12:37:35.581Z,40.48
2017-11-15T12:38:35.561Z,40.87
2017-11-15T12:39:35.543Z,40.68
2017-11-15T12:40:35.526Z,39.44
2017-11-15T12:41:35.780Z,38.68
2017-11-15T12:42:35.786Z,37.82
2017-11-15T12:43:35.751Z,38.39
2017-11-15T12:44:35.728Z,38.96
2017-11-15T12:45:35.714Z,38.49
2017-11-15T12:46:35.428Z,37.82
2017-11-15T12:47:35.680Z,37.82
2017-11-15T12:48:35.718Z,37.25
2017-11-15T12:49:35.652Z,37.06
2017-11-15T12:50:35.365Z,36.58
2017-11-15T12:51:35.345Z,36.2
2017-11-15T12:52:35.600Z,35.63
2017-11-15T12:53:35.313Z,34.77
2017-11-15T12:54:35.577Z,33.34
2017-11-15T12:55:35.550Z,32.77
2017-11-15T12:56:35.264Z,30.96
2017-11-15T12:57:35.249Z,30.49
2017-11-15T12:58:35.232Z,30.29
2017-11-15T12:59:35.214Z,29.72
2017-11-15T13:00:35.474Z,28.86
2017-11-15T13:01:35.478Z,26.58
2017-11-15T13:02:35.435Z,27.25
2017-11-15T13:03:35.423Z,27.34
2017-11-15T13:04:35.131Z,26.77
2017-11-15T13:05:35.384Z,25.72
2017-11-15T13:06:35.100Z,24.87
2017-11-15T13:07:35.082Z,23.72
2017-11-15T13:08:35.067Z,23.82
2017-11-15T13:09:35.322Z,22.48
2017-11-15T13:10:35.308Z,22.58
2017-11-15T13:11:35.296Z,23.24
2017-11-15T13:12:35.269Z,24.48
2017-11-15T13:13:34.989Z,24.01
2017-11-15T13:14:35.246Z,23.24
2017-11-15T13:15:35.224Z,23.34
2017-11-15T13:16:35.207Z,22.67
2017-11-15T13:17:34.925Z,22.58
2017-11-15T13:18:35.175Z,22.39
2017-11-15T13:19:35.176Z,23.63
2017-11-15T13:20:35.142Z,25.15
2017-11-15T13:21:35.123Z,26.1